sensor_id;sensor_type;location;lat;lon;timestamp;P1;durP1;ratioP1;P2;durP2;ratioP2
16330;SDS011;8275;48.206;16.340;2023-03-01T00:01:48;20.73;;;15.10;;
16330;SDS011;8275;48.206;16.340;2023-03-01T00:04:16;17.37;;;14.13;;
16330;SDS011;8275;48.206;16.340;2023-03-01T00:06:46;15.40;;;12.87;;
16330;SDS011;8275;48.206;16.340;2023-03-01T00:09:15;34.13;;;15.27;;
16330;SDS011;8275;48.206;16.340;2023-03-01T00:11:44;18.73;;;13.63;;
16330;SDS011;8275;48.206;16.340;2023-03-01T00:14:13;18.17;;;14.63;;
16330;SDS011;8275;48.206;16.340;2023-03-01T00:16:44;18.63;;;14.67;;
16330;SDS011;8275;48.206;16.340;2023-03-01T00:19:13;16.40;;;13.57;;
16330;SDS011;8275;48.206;16.340;2023-03-01T00:21:45;16.53;;;14.10;;
16330;SDS011;8275;48.206;16.340;2023-03-01T00:24:15;16.90;;;14.17;;
16330;SDS011;8275;48.206;16.340;2023-03-01T00:26:43;16.40;;;14.73;;
16330;SDS011;8275;48.206;16.340;2023-03-01T00:29:12;18.53;;;13.17;;
16330;SDS011;8275;48.206;16.340;2023-03-01T00:31:41;18.07;;;14.23;;
16330;SDS011;8275;48.206;16.340;2023-03-01T00:34:09;17.07;;;13.27;;
16330;SDS011;8275;48.206;16.340;2023-03-01T00:36:38;19.30;;;14.40;;
16330;SDS011;8275;48.206;16.340;2023-03-01T00:39:10;20.30;;;16.50;;
16330;SDS011;8275;48.206;16.340;2023-03-01T00:41:41;18.80;;;14.37;;
16330;SDS011;8275;48.206;16.340;2023-03-01T00:44:10;18.43;;;15.60;;
16330;SDS011;8275;48.206;16.340;2023-03-01T00:46:39;16.63;;;14.30;;
16330;SDS011;8275;48.206;16.340;2023-03-01T00:49:07;17.23;;;15.50;;
16330;SDS011;8275;48.206;16.340;2023-03-01T00:51:36;19.93;;;13.97;;
16330;SDS011;8275;48.206;16.340;2023-03-01T00:54:05;21.27;;;16.47;;
16330;SDS011;8275;48.206;16.340;2023-03-01T00:56:36;21.37;;;15.47;;
16330;SDS011;8275;48.206;16.340;2023-03-01T00:59:05;15.30;;;13.60;;
16330;SDS011;8275;48.206;16.340;2023-03-01T01:01:33;17.87;;;14.23;;
16330;SDS011;8275;48.206;16.340;2023-03-01T01:04:03;22.53;;;17.67;;
16330;SDS011;8275;48.206;16.340;2023-03-01T01:06:35;19.33;;;15.43;;
16330;SDS011;8275;48.206;16.340;2023-03-01T01:09:05;19.33;;;14.70;;
16330;SDS011;8275;48.206;16.340;2023-03-01T01:11:43;18.80;;;16.73;;
16330;SDS011;8275;48.206;16.340;2023-03-01T01:14:13;21.93;;;17.03;;
16330;SDS011;8275;48.206;16.340;2023-03-01T01:16:43;17.27;;;14.47;;
16330;SDS011;8275;48.206;16.340;2023-03-01T01:19:11;19.73;;;14.57;;
16330;SDS011;8275;48.206;16.340;2023-03-01T01:21:40;21.43;;;15.30;;
16330;SDS011;8275;48.206;16.340;2023-03-01T01:24:11;18.40;;;15.07;;
16330;SDS011;8275;48.206;16.340;2023-03-01T01:26:40;24.13;;;15.37;;
16330;SDS011;8275;48.206;16.340;2023-03-01T01:29:09;22.10;;;16.33;;
16330;SDS011;8275;48.206;16.340;2023-03-01T01:31:39;19.37;;;14.97;;
16330;SDS011;8275;48.206;16.340;2023-03-01T01:34:12;19.77;;;15.13;;
16330;SDS011;8275;48.206;16.340;2023-03-01T01:36:43;19.33;;;15.57;;
16330;SDS011;8275;48.206;16.340;2023-03-01T01:39:16;19.13;;;14.40;;
16330;SDS011;8275;48.206;16.340;2023-03-01T01:41:45;22.73;;;15.90;;
16330;SDS011;8275;48.206;16.340;2023-03-01T01:44:15;19.20;;;14.17;;
16330;SDS011;8275;48.206;16.340;2023-03-01T01:46:49;23.37;;;17.33;;
16330;SDS011;8275;48.206;16.340;2023-03-01T01:49:25;21.63;;;16.37;;
16330;SDS011;8275;48.206;16.340;2023-03-01T01:52:04;21.33;;;15.60;;
16330;SDS011;8275;48.206;16.340;2023-03-01T01:54:40;19.00;;;15.23;;
16330;SDS011;8275;48.206;16.340;2023-03-01T01:57:14;21.43;;;15.83;;
16330;SDS011;8275;48.206;16.340;2023-03-01T01:59:48;32.83;;;16.83;;
16330;SDS011;8275;48.206;16.340;2023-03-01T02:02:21;21.77;;;15.63;;
16330;SDS011;8275;48.206;16.340;2023-03-01T02:04:52;22.03;;;16.80;;
16330;SDS011;8275;48.206;16.340;2023-03-01T02:07:31;20.40;;;16.17;;
16330;SDS011;8275;48.206;16.340;2023-03-01T02:10:02;18.10;;;14.87;;
16330;SDS011;8275;48.206;16.340;2023-03-01T02:12:31;19.10;;;15.77;;
16330;SDS011;8275;48.206;16.340;2023-03-01T02:15:01;21.23;;;15.93;;
16330;SDS011;8275;48.206;16.340;2023-03-01T02:17:30;20.40;;;15.87;;
16330;SDS011;8275;48.206;16.340;2023-03-01T02:20:03;19.70;;;15.67;;
16330;SDS011;8275;48.206;16.340;2023-03-01T02:22:44;21.53;;;17.27;;
16330;SDS011;8275;48.206;16.340;2023-03-01T02:25:22;21.33;;;16.20;;
16330;SDS011;8275;48.206;16.340;2023-03-01T02:28:01;20.27;;;14.83;;
16330;SDS011;8275;48.206;16.340;2023-03-01T02:30:41;18.77;;;16.97;;
16330;SDS011;8275;48.206;16.340;2023-03-01T02:33:25;18.40;;;13.90;;
16330;SDS011;8275;48.206;16.340;2023-03-01T02:35:54;19.65;;;13.55;;
16330;SDS011;8275;48.206;16.340;2023-03-01T02:38:24;22.30;;;15.23;;
16330;SDS011;8275;48.206;16.340;2023-03-01T02:40:52;19.27;;;15.97;;
16330;SDS011;8275;48.206;16.340;2023-03-01T02:43:25;20.43;;;15.13;;
16330;SDS011;8275;48.206;16.340;2023-03-01T02:46:02;17.93;;;15.93;;
16330;SDS011;8275;48.206;16.340;2023-03-01T02:48:39;20.43;;;14.93;;
16330;SDS011;8275;48.206;16.340;2023-03-01T02:51:10;19.00;;;14.73;;
16330;SDS011;8275;48.206;16.340;2023-03-01T02:54:06;19.93;;;16.67;;
16330;SDS011;8275;48.206;16.340;2023-03-01T02:56:42;22.47;;;15.37;;
16330;SDS011;8275;48.206;16.340;2023-03-01T02:59:15;19.83;;;16.17;;
16330;SDS011;8275;48.206;16.340;2023-03-01T03:01:48;29.20;;;16.27;;
16330;SDS011;8275;48.206;16.340;2023-03-01T03:04:17;18.83;;;16.53;;
16330;SDS011;8275;48.206;16.340;2023-03-01T03:06:48;21.23;;;17.87;;
16330;SDS011;8275;48.206;16.340;2023-03-01T03:09:18;21.80;;;17.38;;
16330;SDS011;8275;48.206;16.340;2023-03-01T03:11:47;20.67;;;16.97;;
16330;SDS011;8275;48.206;16.340;2023-03-01T03:14:16;19.90;;;16.70;;
16330;SDS011;8275;48.206;16.340;2023-03-01T03:16:45;25.17;;;17.97;;
16330;SDS011;8275;48.206;16.340;2023-03-01T03:19:17;21.83;;;16.43;;
16330;SDS011;8275;48.206;16.340;2023-03-01T03:21:47;19.67;;;15.77;;
16330;SDS011;8275;48.206;16.340;2023-03-01T03:24:15;25.60;;;16.37;;
16330;SDS011;8275;48.206;16.340;2023-03-01T03:26:44;21.63;;;16.77;;
16330;SDS011;8275;48.206;16.340;2023-03-01T03:29:13;22.90;;;17.70;;
16330;SDS011;8275;48.206;16.340;2023-03-01T03:31:41;19.98;;;17.85;;
16330;SDS011;8275;48.206;16.340;2023-03-01T03:34:11;22.55;;;18.05;;
16330;SDS011;8275;48.206;16.340;2023-03-01T03:36:44;25.58;;;18.42;;
16330;SDS011;8275;48.206;16.340;2023-03-01T03:39:12;23.33;;;18.27;;
16330;SDS011;8275;48.206;16.340;2023-03-01T03:41:41;28.23;;;18.13;;
16330;SDS011;8275;48.206;16.340;2023-03-01T03:44:09;17.93;;;15.50;;
16330;SDS011;8275;48.206;16.340;2023-03-01T03:46:38;21.53;;;16.83;;
16330;SDS011;8275;48.206;16.340;2023-03-01T03:49:06;19.37;;;15.80;;
16330;SDS011;8275;48.206;16.340;2023-03-01T03:51:36;21.43;;;17.10;;
16330;SDS011;8275;48.206;16.340;2023-03-01T03:54:04;22.03;;;17.97;;
16330;SDS011;8275;48.206;16.340;2023-03-01T03:56:33;22.27;;;17.47;;
16330;SDS011;8275;48.206;16.340;2023-03-01T03:59:01;22.93;;;17.97;;
16330;SDS011;8275;48.206;16.340;2023-03-01T04:01:30;19.83;;;16.90;;
16330;SDS011;8275;48.206;16.340;2023-03-01T04:03:58;20.50;;;18.33;;
16330;SDS011;8275;48.206;16.340;2023-03-01T04:06:30;19.87;;;16.23;;
16330;SDS011;8275;48.206;16.340;2023-03-01T04:09:00;21.17;;;18.47;;
16330;SDS011;8275;48.206;16.340;2023-03-01T04:11:29;21.83;;;17.20;;
16330;SDS011;8275;48.206;16.340;2023-03-01T04:13:58;22.50;;;18.53;;
16330;SDS011;8275;48.206;16.340;2023-03-01T04:16:26;27.27;;;18.30;;
16330;SDS011;8275;48.206;16.340;2023-03-01T04:18:56;21.20;;;17.80;;
16330;SDS011;8275;48.206;16.340;2023-03-01T04:21:26;23.50;;;17.63;;
16330;SDS011;8275;48.206;16.340;2023-03-01T04:23:54;20.80;;;18.07;;
16330;SDS011;8275;48.206;16.340;2023-03-01T04:26:24;18.27;;;16.27;;
16330;SDS011;8275;48.206;16.340;2023-03-01T04:28:53;20.97;;;17.40;;
16330;SDS011;8275;48.206;16.340;2023-03-01T04:31:21;22.07;;;18.23;;
16330;SDS011;8275;48.206;16.340;2023-03-01T04:33:51;22.63;;;18.27;;
16330;SDS011;8275;48.206;16.340;2023-03-01T04:36:21;24.87;;;18.37;;
16330;SDS011;8275;48.206;16.340;2023-03-01T04:38:53;18.73;;;15.83;;
16330;SDS011;8275;48.206;16.340;2023-03-01T04:41:24;19.50;;;15.77;;
16330;SDS011;8275;48.206;16.340;2023-03-01T04:43:54;22.20;;;17.97;;
16330;SDS011;8275;48.206;16.340;2023-03-01T04:46:22;20.20;;;17.93;;
16330;SDS011;8275;48.206;16.340;2023-03-01T04:48:51;19.30;;;15.33;;
16330;SDS011;8275;48.206;16.340;2023-03-01T04:51:20;20.47;;;18.27;;
16330;SDS011;8275;48.206;16.340;2023-03-01T04:53:48;24.87;;;19.10;;
16330;SDS011;8275;48.206;16.340;2023-03-01T04:56:17;20.90;;;17.85;;
16330;SDS011;8275;48.206;16.340;2023-03-01T04:58:47;21.52;;;17.30;;
16330;SDS011;8275;48.206;16.340;2023-03-01T05:01:17;21.58;;;16.13;;
16330;SDS011;8275;48.206;16.340;2023-03-01T05:03:47;21.53;;;16.50;;
16330;SDS011;8275;48.206;16.340;2023-03-01T05:06:17;24.03;;;17.90;;
16330;SDS011;8275;48.206;16.340;2023-03-01T05:08:47;21.83;;;17.67;;
16330;SDS011;8275;48.206;16.340;2023-03-01T05:11:16;22.63;;;16.83;;
16330;SDS011;8275;48.206;16.340;2023-03-01T05:13:44;25.47;;;17.87;;
16330;SDS011;8275;48.206;16.340;2023-03-01T05:16:16;18.43;;;15.37;;
16330;SDS011;8275;48.206;16.340;2023-03-01T05:18:46;22.40;;;18.33;;
16330;SDS011;8275;48.206;16.340;2023-03-01T05:21:16;27.20;;;19.03;;
16330;SDS011;8275;48.206;16.340;2023-03-01T05:23:45;22.00;;;17.73;;
16330;SDS011;8275;48.206;16.340;2023-03-01T05:26:14;21.33;;;18.07;;
16330;SDS011;8275;48.206;16.340;2023-03-01T05:28:55;20.00;;;17.80;;
16330;SDS011;8275;48.206;16.340;2023-03-01T05:31:25;19.97;;;17.00;;
16330;SDS011;8275;48.206;16.340;2023-03-01T05:33:54;21.17;;;16.10;;
16330;SDS011;8275;48.206;16.340;2023-03-01T05:36:23;19.07;;;15.70;;
16330;SDS011;8275;48.206;16.340;2023-03-01T05:38:51;24.17;;;16.87;;
16330;SDS011;8275;48.206;16.340;2023-03-01T05:41:20;19.20;;;16.50;;
16330;SDS011;8275;48.206;16.340;2023-03-01T05:43:48;23.77;;;16.63;;
16330;SDS011;8275;48.206;16.340;2023-03-01T05:46:18;20.70;;;17.00;;
16330;SDS011;8275;48.206;16.340;2023-03-01T05:48:46;21.43;;;18.03;;
16330;SDS011;8275;48.206;16.340;2023-03-01T05:51:15;20.80;;;16.07;;
16330;SDS011;8275;48.206;16.340;2023-03-01T05:53:44;19.83;;;16.00;;
16330;SDS011;8275;48.206;16.340;2023-03-01T05:56:13;19.47;;;16.60;;
16330;SDS011;8275;48.206;16.340;2023-03-01T05:58:41;21.77;;;18.77;;
16330;SDS011;8275;48.206;16.340;2023-03-01T06:01:11;21.73;;;16.80;;
16330;SDS011;8275;48.206;16.340;2023-03-01T06:03:41;21.63;;;17.43;;
16330;SDS011;8275;48.206;16.340;2023-03-01T06:06:10;25.90;;;16.63;;
16330;SDS011;8275;48.206;16.340;2023-03-01T06:08:38;19.67;;;14.47;;
16330;SDS011;8275;48.206;16.340;2023-03-01T06:11:06;20.90;;;17.67;;
16330;SDS011;8275;48.206;16.340;2023-03-01T06:13:35;24.57;;;17.97;;
16330;SDS011;8275;48.206;16.340;2023-03-01T06:16:04;21.50;;;17.47;;
16330;SDS011;8275;48.206;16.340;2023-03-01T06:18:33;19.07;;;16.30;;
16330;SDS011;8275;48.206;16.340;2023-03-01T06:21:03;19.47;;;16.63;;
16330;SDS011;8275;48.206;16.340;2023-03-01T06:23:32;21.37;;;16.13;;
16330;SDS011;8275;48.206;16.340;2023-03-01T06:26:04;20.42;;;16.08;;
16330;SDS011;8275;48.206;16.340;2023-03-01T06:28:34;23.73;;;18.13;;
16330;SDS011;8275;48.206;16.340;2023-03-01T06:31:04;18.90;;;16.52;;
16330;SDS011;8275;48.206;16.340;2023-03-01T06:33:35;19.93;;;16.47;;
16330;SDS011;8275;48.206;16.340;2023-03-01T06:36:05;20.37;;;15.93;;
16330;SDS011;8275;48.206;16.340;2023-03-01T06:38:36;22.83;;;16.40;;
16330;SDS011;8275;48.206;16.340;2023-03-01T06:41:07;21.45;;;15.90;;
16330;SDS011;8275;48.206;16.340;2023-03-01T06:43:35;23.50;;;17.13;;
16330;SDS011;8275;48.206;16.340;2023-03-01T06:46:04;22.85;;;17.77;;
16330;SDS011;8275;48.206;16.340;2023-03-01T06:48:34;21.73;;;17.67;;
16330;SDS011;8275;48.206;16.340;2023-03-01T06:51:03;18.35;;;15.77;;
16330;SDS011;8275;48.206;16.340;2023-03-01T06:53:33;30.50;;;18.77;;
16330;SDS011;8275;48.206;16.340;2023-03-01T06:56:01;19.75;;;16.63;;
16330;SDS011;8275;48.206;16.340;2023-03-01T06:58:30;23.58;;;18.33;;
16330;SDS011;8275;48.206;16.340;2023-03-01T07:00:59;24.05;;;18.52;;
16330;SDS011;8275;48.206;16.340;2023-03-01T07:03:29;26.63;;;18.20;;
16330;SDS011;8275;48.206;16.340;2023-03-01T07:05:57;22.98;;;17.92;;
16330;SDS011;8275;48.206;16.340;2023-03-01T07:08:26;22.17;;;16.58;;
16330;SDS011;8275;48.206;16.340;2023-03-01T07:10:55;24.17;;;17.85;;
16330;SDS011;8275;48.206;16.340;2023-03-01T07:13:24;23.30;;;19.17;;
16330;SDS011;8275;48.206;16.340;2023-03-01T07:15:52;22.33;;;16.60;;
16330;SDS011;8275;48.206;16.340;2023-03-01T07:18:21;25.63;;;17.60;;
16330;SDS011;8275;48.206;16.340;2023-03-01T07:20:49;26.67;;;16.17;;
16330;SDS011;8275;48.206;16.340;2023-03-01T07:23:18;18.77;;;16.23;;
16330;SDS011;8275;48.206;16.340;2023-03-01T07:25:52;30.75;;;16.80;;
16330;SDS011;8275;48.206;16.340;2023-03-01T07:28:22;23.85;;;18.92;;
16330;SDS011;8275;48.206;16.340;2023-03-01T07:30:51;24.88;;;18.83;;
16330;SDS011;8275;48.206;16.340;2023-03-01T07:33:20;42.40;;;17.27;;
16330;SDS011;8275;48.206;16.340;2023-03-01T07:35:48;22.77;;;16.65;;
16330;SDS011;8275;48.206;16.340;2023-03-01T07:38:25;21.77;;;15.38;;
16330;SDS011;8275;48.206;16.340;2023-03-01T07:40:57;27.27;;;17.10;;
16330;SDS011;8275;48.206;16.340;2023-03-01T07:43:26;42.60;;;17.77;;
16330;SDS011;8275;48.206;16.340;2023-03-01T07:45:58;27.67;;;18.00;;
16330;SDS011;8275;48.206;16.340;2023-03-01T07:48:28;23.45;;;17.02;;
16330;SDS011;8275;48.206;16.340;2023-03-01T07:50:58;25.10;;;17.73;;
16330;SDS011;8275;48.206;16.340;2023-03-01T07:53:27;31.60;;;18.33;;
16330;SDS011;8275;48.206;16.340;2023-03-01T07:56:01;25.05;;;19.23;;
16330;SDS011;8275;48.206;16.340;2023-03-01T07:58:33;23.35;;;18.20;;
16330;SDS011;8275;48.206;16.340;2023-03-01T08:01:02;23.27;;;18.13;;
16330;SDS011;8275;48.206;16.340;2023-03-01T08:03:32;26.30;;;20.27;;
16330;SDS011;8275;48.206;16.340;2023-03-01T08:06:01;21.67;;;16.42;;
16330;SDS011;8275;48.206;16.340;2023-03-01T08:08:31;22.63;;;17.02;;
16330;SDS011;8275;48.206;16.340;2023-03-01T08:11:02;20.73;;;18.52;;
16330;SDS011;8275;48.206;16.340;2023-03-01T08:13:33;24.63;;;18.17;;
16330;SDS011;8275;48.206;16.340;2023-03-01T08:16:02;19.02;;;16.92;;
16330;SDS011;8275;48.206;16.340;2023-03-01T08:18:34;38.83;;;20.58;;
16330;SDS011;8275;48.206;16.340;2023-03-01T08:21:03;24.02;;;17.02;;
16330;SDS011;8275;48.206;16.340;2023-03-01T08:23:33;22.90;;;17.40;;
16330;SDS011;8275;48.206;16.340;2023-03-01T08:26:07;30.77;;;24.33;;
16330;SDS011;8275;48.206;16.340;2023-03-01T08:28:38;29.98;;;19.33;;
16330;SDS011;8275;48.206;16.340;2023-03-01T08:31:14;24.83;;;20.10;;
16330;SDS011;8275;48.206;16.340;2023-03-01T08:33:45;20.88;;;17.13;;
16330;SDS011;8275;48.206;16.340;2023-03-01T08:36:17;24.75;;;19.08;;
16330;SDS011;8275;48.206;16.340;2023-03-01T08:38:47;26.90;;;20.33;;
16330;SDS011;8275;48.206;16.340;2023-03-01T08:41:17;26.83;;;20.17;;
16330;SDS011;8275;48.206;16.340;2023-03-01T08:43:46;20.63;;;18.08;;
16330;SDS011;8275;48.206;16.340;2023-03-01T08:46:15;22.13;;;18.73;;
16330;SDS011;8275;48.206;16.340;2023-03-01T08:48:44;20.33;;;17.40;;
16330;SDS011;8275;48.206;16.340;2023-03-01T08:51:13;30.65;;;21.27;;
16330;SDS011;8275;48.206;16.340;2023-03-01T08:53:43;25.05;;;19.88;;
16330;SDS011;8275;48.206;16.340;2023-03-01T08:56:13;25.17;;;18.70;;
16330;SDS011;8275;48.206;16.340;2023-03-01T08:58:44;21.98;;;18.95;;
16330;SDS011;8275;48.206;16.340;2023-03-01T09:01:15;26.25;;;19.30;;
16330;SDS011;8275;48.206;16.340;2023-03-01T09:03:46;24.10;;;18.48;;
16330;SDS011;8275;48.206;16.340;2023-03-01T09:06:15;24.02;;;19.63;;
16330;SDS011;8275;48.206;16.340;2023-03-01T09:08:44;35.60;;;21.48;;
16330;SDS011;8275;48.206;16.340;2023-03-01T09:11:15;22.10;;;18.88;;
16330;SDS011;8275;48.206;16.340;2023-03-01T09:13:48;26.77;;;17.55;;
16330;SDS011;8275;48.206;16.340;2023-03-01T09:16:18;22.05;;;18.83;;
16330;SDS011;8275;48.206;16.340;2023-03-01T09:18:49;26.35;;;19.50;;
16330;SDS011;8275;48.206;16.340;2023-03-01T09:21:19;23.48;;;17.88;;
16330;SDS011;8275;48.206;16.340;2023-03-01T09:24:06;24.65;;;19.02;;
16330;SDS011;8275;48.206;16.340;2023-03-01T09:26:40;22.02;;;19.70;;
16330;SDS011;8275;48.206;16.340;2023-03-01T09:29:10;24.45;;;20.17;;
16330;SDS011;8275;48.206;16.340;2023-03-01T09:31:39;22.88;;;18.05;;
16330;SDS011;8275;48.206;16.340;2023-03-01T09:34:09;34.70;;;21.73;;
16330;SDS011;8275;48.206;16.340;2023-03-01T09:36:37;30.27;;;19.63;;
16330;SDS011;8275;48.206;16.340;2023-03-01T09:39:06;22.02;;;19.55;;
16330;SDS011;8275;48.206;16.340;2023-03-01T09:41:42;24.65;;;19.70;;
16330;SDS011;8275;48.206;16.340;2023-03-01T09:44:20;23.88;;;20.92;;
16330;SDS011;8275;48.206;16.340;2023-03-01T09:46:58;23.88;;;18.02;;
16330;SDS011;8275;48.206;16.340;2023-03-01T09:49:28;25.70;;;20.33;;
16330;SDS011;8275;48.206;16.340;2023-03-01T09:52:03;28.75;;;18.67;;
16330;SDS011;8275;48.206;16.340;2023-03-01T09:54:48;23.65;;;18.90;;
16330;SDS011;8275;48.206;16.340;2023-03-01T09:57:26;40.70;;;18.27;;
16330;SDS011;8275;48.206;16.340;2023-03-01T10:03:02;18.88;;;15.68;;
16330;SDS011;8275;48.206;16.340;2023-03-01T10:05:45;18.65;;;15.70;;
16330;SDS011;8275;48.206;16.340;2023-03-01T10:08:26;19.13;;;15.52;;
16330;SDS011;8275;48.206;16.340;2023-03-01T10:11:03;33.95;;;18.45;;
16330;SDS011;8275;48.206;16.340;2023-03-01T10:13:45;26.17;;;16.60;;
16330;SDS011;8275;48.206;16.340;2023-03-01T10:16:23;21.73;;;15.93;;
16330;SDS011;8275;48.206;16.340;2023-03-01T10:19:02;21.25;;;16.80;;
16330;SDS011;8275;48.206;16.340;2023-03-01T10:21:33;20.65;;;16.40;;
16330;SDS011;8275;48.206;16.340;2023-03-01T10:24:10;21.20;;;17.00;;
16330;SDS011;8275;48.206;16.340;2023-03-01T10:26:47;19.85;;;17.35;;
16330;SDS011;8275;48.206;16.340;2023-03-01T10:29:23;22.05;;;17.77;;
16330;SDS011;8275;48.206;16.340;2023-03-01T10:31:58;18.65;;;15.77;;
16330;SDS011;8275;48.206;16.340;2023-03-01T10:34:28;22.58;;;19.15;;
16330;SDS011;8275;48.206;16.340;2023-03-01T10:37:01;36.55;;;18.42;;
16330;SDS011;8275;48.206;16.340;2023-03-01T10:39:57;22.10;;;16.73;;
16330;SDS011;8275;48.206;16.340;2023-03-01T10:42:33;29.10;;;17.77;;
16330;SDS011;8275;48.206;16.340;2023-03-01T10:45:15;94.15;;;25.80;;
16330;SDS011;8275;48.206;16.340;2023-03-01T10:48:05;58.03;;;20.13;;
16330;SDS011;8275;48.206;16.340;2023-03-01T10:50:40;19.25;;;15.95;;
16330;SDS011;8275;48.206;16.340;2023-03-01T10:53:21;21.00;;;15.55;;
16330;SDS011;8275;48.206;16.340;2023-03-01T10:55:59;15.55;;;13.80;;
16330;SDS011;8275;48.206;16.340;2023-03-01T10:58:32;16.15;;;13.88;;
16330;SDS011;8275;48.206;16.340;2023-03-01T11:01:03;18.50;;;14.20;;
16330;SDS011;8275;48.206;16.340;2023-03-01T11:03:35;14.82;;;13.25;;
16330;SDS011;8275;48.206;16.340;2023-03-01T11:06:12;15.30;;;12.65;;
16330;SDS011;8275;48.206;16.340;2023-03-01T11:08:49;14.00;;;12.70;;
16330;SDS011;8275;48.206;16.340;2023-03-01T11:11:22;15.98;;;12.50;;
16330;SDS011;8275;48.206;16.340;2023-03-01T11:13:58;13.27;;;11.70;;
16330;SDS011;8275;48.206;16.340;2023-03-01T11:16:58;16.38;;;13.10;;
16330;SDS011;8275;48.206;16.340;2023-03-01T11:19:29;15.85;;;12.40;;
16330;SDS011;8275;48.206;16.340;2023-03-01T11:22:01;15.63;;;12.43;;
16330;SDS011;8275;48.206;16.340;2023-03-01T11:24:42;15.65;;;12.55;;
16330;SDS011;8275;48.206;16.340;2023-03-01T11:27:29;19.02;;;13.75;;
16330;SDS011;8275;48.206;16.340;2023-03-01T11:30:02;19.30;;;15.45;;
16330;SDS011;8275;48.206;16.340;2023-03-01T11:32:36;18.95;;;17.08;;
16330;SDS011;8275;48.206;16.340;2023-03-01T11:35:15;19.25;;;17.30;;
16330;SDS011;8275;48.206;16.340;2023-03-01T11:37:53;19.73;;;15.75;;
16330;SDS011;8275;48.206;16.340;2023-03-01T11:40:33;19.23;;;17.05;;
16330;SDS011;8275;48.206;16.340;2023-03-01T11:43:10;20.00;;;17.73;;
16330;SDS011;8275;48.206;16.340;2023-03-01T11:49:10;16.45;;;14.73;;
16330;SDS011;8275;48.206;16.340;2023-03-01T11:52:08;16.27;;;14.52;;
16330;SDS011;8275;48.206;16.340;2023-03-01T11:54:53;20.85;;;16.50;;
16330;SDS011;8275;48.206;16.340;2023-03-01T11:57:43;19.48;;;15.65;;
16330;SDS011;8275;48.206;16.340;2023-03-01T12:00:34;19.10;;;15.80;;
16330;SDS011;8275;48.206;16.340;2023-03-01T12:03:27;20.33;;;17.02;;
16330;SDS011;8275;48.206;16.340;2023-03-01T12:06:12;20.27;;;14.05;;
16330;SDS011;8275;48.206;16.340;2023-03-01T12:09:12;17.38;;;15.38;;
16330;SDS011;8275;48.206;16.340;2023-03-01T12:12:08;19.08;;;15.85;;
16330;SDS011;8275;48.206;16.340;2023-03-01T12:15:18;18.75;;;16.27;;
16330;SDS011;8275;48.206;16.340;2023-03-01T12:18:36;17.75;;;16.02;;
16330;SDS011;8275;48.206;16.340;2023-03-01T12:21:25;23.20;;;15.38;;
16330;SDS011;8275;48.206;16.340;2023-03-01T12:24:21;24.23;;;15.90;;
16330;SDS011;8275;48.206;16.340;2023-03-01T12:27:33;17.38;;;15.43;;
16330;SDS011;8275;48.206;16.340;2023-03-01T12:30:55;17.88;;;14.75;;
16330;SDS011;8275;48.206;16.340;2023-03-01T12:34:13;17.08;;;15.10;;
16330;SDS011;8275;48.206;16.340;2023-03-01T12:37:11;16.17;;;13.98;;
16330;SDS011;8275;48.206;16.340;2023-03-01T12:39:59;18.60;;;16.70;;
16330;SDS011;8275;48.206;16.340;2023-03-01T12:42:57;22.75;;;16.15;;
16330;SDS011;8275;48.206;16.340;2023-03-01T12:45:48;17.80;;;16.08;;
16330;SDS011;8275;48.206;16.340;2023-03-01T12:48:33;16.77;;;13.68;;
16330;SDS011;8275;48.206;16.340;2023-03-01T12:51:15;17.15;;;13.93;;
16330;SDS011;8275;48.206;16.340;2023-03-01T12:53:48;19.70;;;15.52;;
16330;SDS011;8275;48.206;16.340;2023-03-01T12:56:21;17.77;;;14.60;;
16330;SDS011;8275;48.206;16.340;2023-03-01T12:58:55;20.58;;;15.60;;
16330;SDS011;8275;48.206;16.340;2023-03-01T13:01:37;17.48;;;14.77;;
16330;SDS011;8275;48.206;16.340;2023-03-01T13:04:17;15.38;;;13.68;;
16330;SDS011;8275;48.206;16.340;2023-03-01T13:07:02;15.95;;;14.32;;
16330;SDS011;8275;48.206;16.340;2023-03-01T13:09:48;18.05;;;13.75;;
16330;SDS011;8275;48.206;16.340;2023-03-01T13:12:45;16.45;;;14.75;;
16330;SDS011;8275;48.206;16.340;2023-03-01T13:15:27;18.42;;;16.42;;
16330;SDS011;8275;48.206;16.340;2023-03-01T13:18:03;16.80;;;15.20;;
16330;SDS011;8275;48.206;16.340;2023-03-01T13:20:56;18.88;;;16.67;;
16330;SDS011;8275;48.206;16.340;2023-03-01T13:23:30;17.00;;;15.18;;
16330;SDS011;8275;48.206;16.340;2023-03-01T13:26:12;15.50;;;13.27;;
16330;SDS011;8275;48.206;16.340;2023-03-01T13:34:42;25.42;;;15.43;;
16330;SDS011;8275;48.206;16.340;2023-03-01T13:37:24;16.42;;;14.73;;
16330;SDS011;8275;48.206;16.340;2023-03-01T13:43:28;20.65;;;14.93;;
16330;SDS011;8275;48.206;16.340;2023-03-01T13:46:00;17.35;;;15.32;;
16330;SDS011;8275;48.206;16.340;2023-03-01T13:48:35;18.95;;;13.77;;
16330;SDS011;8275;48.206;16.340;2023-03-01T13:51:05;16.15;;;14.65;;
16330;SDS011;8275;48.206;16.340;2023-03-01T13:53:39;19.27;;;16.30;;
16330;SDS011;8275;48.206;16.340;2023-03-01T13:56:12;16.38;;;14.70;;
16330;SDS011;8275;48.206;16.340;2023-03-01T13:58:45;17.27;;;14.77;;
16330;SDS011;8275;48.206;16.340;2023-03-01T14:01:22;15.05;;;13.45;;
16330;SDS011;8275;48.206;16.340;2023-03-01T14:03:55;18.60;;;15.10;;
16330;SDS011;8275;48.206;16.340;2023-03-01T14:06:25;16.40;;;13.60;;
16330;SDS011;8275;48.206;16.340;2023-03-01T14:09:04;15.35;;;13.85;;
16330;SDS011;8275;48.206;16.340;2023-03-01T14:11:54;16.00;;;14.30;;
16330;SDS011;8275;48.206;16.340;2023-03-01T14:14:46;17.25;;;14.68;;
16330;SDS011;8275;48.206;16.340;2023-03-01T14:20:38;20.50;;;16.65;;
16330;SDS011;8275;48.206;16.340;2023-03-01T14:23:12;17.33;;;13.95;;
16330;SDS011;8275;48.206;16.340;2023-03-01T14:25:48;18.85;;;15.27;;
16330;SDS011;8275;48.206;16.340;2023-03-01T14:28:19;15.70;;;13.95;;
16330;SDS011;8275;48.206;16.340;2023-03-01T14:30:52;15.02;;;13.57;;
16330;SDS011;8275;48.206;16.340;2023-03-01T14:33:24;19.05;;;14.18;;
16330;SDS011;8275;48.206;16.340;2023-03-01T14:35:56;13.95;;;12.45;;
16330;SDS011;8275;48.206;16.340;2023-03-01T14:38:32;14.43;;;12.90;;
16330;SDS011;8275;48.206;16.340;2023-03-01T14:41:03;19.52;;;14.02;;
16330;SDS011;8275;48.206;16.340;2023-03-01T14:43:35;18.38;;;13.50;;
16330;SDS011;8275;48.206;16.340;2023-03-01T14:46:16;19.52;;;12.60;;
16330;SDS011;8275;48.206;16.340;2023-03-01T14:48:49;20.58;;;14.27;;
16330;SDS011;8275;48.206;16.340;2023-03-01T14:51:19;14.20;;;12.68;;
16330;SDS011;8275;48.206;16.340;2023-03-01T14:53:48;15.30;;;13.00;;
16330;SDS011;8275;48.206;16.340;2023-03-01T14:56:17;23.65;;;13.13;;
16330;SDS011;8275;48.206;16.340;2023-03-01T14:58:46;16.48;;;13.25;;
16330;SDS011;8275;48.206;16.340;2023-03-01T15:01:19;18.45;;;13.73;;
16330;SDS011;8275;48.206;16.340;2023-03-01T15:03:49;15.48;;;13.82;;
16330;SDS011;8275;48.206;16.340;2023-03-01T15:06:20;21.58;;;15.55;;
16330;SDS011;8275;48.206;16.340;2023-03-01T15:08:51;17.65;;;15.77;;
16330;SDS011;8275;48.206;16.340;2023-03-01T15:11:23;26.60;;;14.57;;
16330;SDS011;8275;48.206;16.340;2023-03-01T15:13:56;16.17;;;13.52;;
16330;SDS011;8275;48.206;16.340;2023-03-01T15:16:26;15.57;;;13.27;;
16330;SDS011;8275;48.206;16.340;2023-03-01T15:18:59;18.60;;;14.48;;